createdAt,value
2019-05-28T00:00:02.312Z,7.23
2019-05-28T00:02:24.365Z,6.70
2019-05-28T00:04:53.179Z,7.97
2019-05-28T00:07:22.092Z,8.33
2019-05-28T00:09:51.326Z,8.03
2019-05-28T00:12:20.961Z,9.30
2019-05-28T00:14:49.776Z,8.03
2019-05-28T00:17:18.664Z,9.13
2019-05-28T00:19:47.652Z,9.70
2019-05-28T00:22:16.607Z,10.70
2019-05-28T00:24:45.732Z,10.37
2019-05-28T00:27:14.605Z,11.80
2019-05-28T00:29:43.505Z,10.10
2019-05-28T00:32:12.430Z,12.03
2019-05-28T00:34:41.598Z,12.13
2019-05-28T00:37:10.536Z,13.23
2019-05-28T00:39:39.413Z,11.20
2019-05-28T00:42:08.508Z,12.50
2019-05-28T00:44:37.488Z,11.67
2019-05-28T00:47:06.984Z,11.37
2019-05-28T00:49:36.056Z,12.43
2019-05-28T00:52:05.062Z,11.50
2019-05-28T00:54:33.970Z,12.10
2019-05-28T00:57:03.315Z,12.43
2019-05-28T00:59:33.421Z,16.87
2019-05-28T01:02:02.445Z,15.00
2019-05-28T01:04:31.341Z,13.40
2019-05-28T01:07:03.428Z,13.40
2019-05-28T01:09:32.239Z,14.47
2019-05-28T01:12:01.393Z,13.03
2019-05-28T01:14:30.361Z,10.83
2019-05-28T01:16:59.312Z,10.13
2019-05-28T01:19:28.527Z,11.27
2019-05-28T01:21:57.421Z,11.60
2019-05-28T01:24:26.328Z,11.97
2019-05-28T01:26:55.261Z,13.27
2019-05-28T01:29:24.151Z,13.33
2019-05-28T01:31:53.264Z,12.30
2019-05-28T01:34:22.286Z,13.20
2019-05-28T01:36:51.477Z,13.53
2019-05-28T01:39:20.580Z,14.97
2019-05-28T01:41:49.490Z,13.17
2019-05-28T01:44:18.569Z,13.17
2019-05-28T01:46:47.908Z,13.00
2019-05-28T01:49:16.712Z,13.30
2019-05-28T01:51:45.530Z,13.53
2019-05-28T01:54:14.324Z,13.00
2019-05-28T01:56:43.486Z,12.83
2019-05-28T01:59:12.372Z,13.37
2019-05-28T02:01:41.212Z,13.60
2019-05-28T02:04:10.144Z,13.10
2019-05-28T02:06:39.056Z,13.77
2019-05-28T02:09:08.257Z,12.70
2019-05-28T02:11:37.180Z,12.70
2019-05-28T02:14:06.157Z,13.33
2019-05-28T02:16:35.237Z,13.10
2019-05-28T02:19:04.145Z,13.00
2019-05-28T02:21:33.016Z,13.60
2019-05-28T02:24:01.900Z,12.70
2019-05-28T02:26:30.817Z,14.10
2019-05-28T02:28:59.690Z,12.63
2019-05-28T02:31:28.616Z,13.13
2019-05-28T02:33:57.767Z,12.50
2019-05-28T02:36:26.764Z,13.13
2019-05-28T02:38:55.795Z,12.37
2019-05-28T02:41:24.685Z,12.00
2019-05-28T02:43:53.674Z,12.97
2019-05-28T02:46:22.556Z,13.60
2019-05-28T02:48:51.356Z,14.20
2019-05-28T02:51:20.349Z,14.13
2019-05-28T02:53:49.524Z,13.80
2019-05-28T02:56:18.821Z,13.10
2019-05-28T02:58:49.964Z,13.87
2019-05-28T03:01:21.724Z,15.00
2019-05-28T03:03:52.479Z,14.30
2019-05-28T03:06:24.213Z,13.93
2019-05-28T03:08:55.629Z,15.33
2019-05-28T03:11:24.664Z,14.87
2019-05-28T03:13:53.584Z,13.23
2019-05-28T03:16:25.536Z,15.13
2019-05-28T03:18:55.427Z,13.60
2019-05-28T03:21:27.354Z,14.10
2019-05-28T03:23:58.049Z,14.27
2019-05-28T03:26:27.203Z,14.50
2019-05-28T03:28:56.282Z,14.80
2019-05-28T03:31:25.282Z,14.10
2019-05-28T03:33:54.280Z,14.10
2019-05-28T03:36:26.733Z,14.60
2019-05-28T03:38:57.645Z,12.80
2019-05-28T03:41:26.429Z,13.37
2019-05-28T03:43:55.676Z,13.53
2019-05-28T03:46:24.696Z,12.90
2019-05-28T03:48:53.624Z,13.27
2019-05-28T03:51:22.492Z,13.93
2019-05-28T03:53:51.446Z,13.40
2019-05-28T03:56:20.669Z,11.60
2019-05-28T03:58:49.596Z,13.77
2019-05-28T04:01:18.480Z,12.47
2019-05-28T04:03:47.360Z,12.73
2019-05-28T04:06:16.281Z,13.27
2019-05-28T04:08:45.292Z,13.73
2019-05-28T04:11:14.276Z,15.10
2019-05-28T04:13:43.273Z,14.13
2019-05-28T04:16:12.204Z,14.50
2019-05-28T04:18:41.120Z,14.80
2019-05-28T04:21:10.230Z,15.53
2019-05-28T04:23:41.605Z,15.90
2019-05-28T04:26:10.100Z,14.60
2019-05-28T04:28:39.154Z,14.50
2019-05-28T04:31:08.132Z,13.80
2019-05-28T04:33:37.017Z,15.60
2019-05-28T04:36:06.030Z,14.77
2019-05-28T04:38:34.876Z,17.80
2019-05-28T04:41:03.725Z,16.00
2019-05-28T04:43:32.849Z,15.07
2019-05-28T04:46:01.942Z,14.17
2019-05-28T04:48:31.294Z,13.13
2019-05-28T04:51:00.115Z,13.20
2019-05-28T04:53:29.028Z,14.00
2019-05-28T04:55:57.920Z,13.00
2019-05-28T04:58:26.836Z,14.13
2019-05-28T05:00:55.755Z,12.83
2019-05-28T05:03:24.657Z,14.10
2019-05-28T05:05:53.636Z,14.77
2019-05-28T05:08:22.514Z,13.50
2019-05-28T05:10:51.309Z,14.27
2019-05-28T05:13:20.133Z,12.27
2019-05-28T05:15:49.222Z,12.33
2019-05-28T05:18:18.193Z,13.80
2019-05-28T05:20:46.973Z,12.40
2019-05-28T05:23:15.990Z,13.10
2019-05-28T05:25:44.965Z,13.90
2019-05-28T05:28:13.945Z,13.40
2019-05-28T05:30:42.817Z,13.57
2019-05-28T05:33:19.970Z,13.87
2019-05-28T05:35:42.421Z,14.17
2019-05-28T05:38:11.346Z,13.70
2019-05-28T05:40:40.328Z,12.73
2019-05-28T05:43:09.308Z,14.40
2019-05-28T05:45:38.349Z,13.83
2019-05-28T05:48:07.524Z,13.87
2019-05-28T05:50:36.499Z,13.87
2019-05-28T05:53:05.713Z,14.10
2019-05-28T05:55:34.671Z,14.90
2019-05-28T05:58:04.063Z,12.90
2019-05-28T06:00:32.945Z,13.57
2019-05-28T06:03:01.818Z,13.60
2019-05-28T06:05:31.112Z,14.30
2019-05-28T06:08:00.050Z,13.57
2019-05-28T06:10:29.061Z,13.63
2019-05-28T06:12:57.852Z,12.73
2019-05-28T06:15:26.843Z,14.00
2019-05-28T06:17:55.969Z,13.20
2019-05-28T06:20:24.959Z,12.30
2019-05-28T06:22:54.119Z,12.10
2019-05-28T06:25:23.228Z,11.80
2019-05-28T06:27:52.117Z,12.40
2019-05-28T06:30:21.097Z,14.17
2019-05-28T06:32:50.093Z,13.20
2019-05-28T06:35:19.064Z,12.13
2019-05-28T06:37:48.037Z,12.53
2019-05-28T06:40:17.634Z,12.83
2019-05-28T06:42:46.792Z,12.13
2019-05-28T06:45:16.518Z,13.27
2019-05-28T06:47:46.033Z,13.13
2019-05-28T06:50:16.722Z,14.30
2019-05-28T06:52:45.652Z,14.00
2019-05-28T06:55:14.626Z,13.40
2019-05-28T06:57:43.624Z,12.90
2019-05-28T07:00:16.004Z,13.83
2019-05-28T07:02:44.913Z,13.07
2019-05-28T07:05:14.411Z,13.60
2019-05-28T07:07:43.304Z,12.93
2019-05-28T07:10:12.616Z,13.60
2019-05-28T07:12:41.796Z,12.27
2019-05-28T07:15:11.179Z,12.50
2019-05-28T07:17:40.136Z,13.53
2019-05-28T07:20:10.734Z,12.93
2019-05-28T07:22:39.649Z,13.87
2019-05-28T07:25:08.676Z,11.53
2019-05-28T07:27:37.600Z,11.83
2019-05-28T07:30:06.848Z,11.90
2019-05-28T07:32:35.731Z,10.43
2019-05-28T07:35:04.844Z,9.10
2019-05-28T07:37:33.745Z,9.10
2019-05-28T07:40:02.834Z,9.20
2019-05-28T07:42:33.218Z,10.73
2019-05-28T07:45:02.494Z,9.50
2019-05-28T07:47:31.425Z,11.53
2019-05-28T07:50:00.324Z,11.80
2019-05-28T07:52:29.342Z,13.07
2019-05-28T07:54:58.417Z,11.40
2019-05-28T07:57:27.224Z,11.83
2019-05-28T07:59:56.157Z,12.30
2019-05-28T08:02:25.120Z,10.30
2019-05-28T08:04:54.387Z,10.30
2019-05-28T08:07:23.498Z,9.43
2019-05-28T08:09:52.492Z,7.73
2019-05-28T08:12:21.692Z,8.60
2019-05-28T08:14:50.546Z,8.30
2019-05-28T08:17:19.489Z,7.47
2019-05-28T08:19:48.372Z,7.53
2019-05-28T08:22:17.201Z,7.23
2019-05-28T08:24:46.200Z,8.00
2019-05-28T08:27:15.117Z,6.37
2019-05-28T08:29:45.747Z,6.47
2019-05-28T08:32:14.681Z,6.90
2019-05-28T08:34:43.589Z,6.80
2019-05-28T08:37:12.494Z,7.03
2019-05-28T08:39:41.329Z,7.27
2019-05-28T08:42:10.272Z,6.80
2019-05-28T08:44:39.053Z,6.60
2019-05-28T08:47:08.017Z,6.13
2019-05-28T08:49:36.988Z,5.70
2019-05-28T08:52:05.981Z,4.93
2019-05-28T08:54:35.197Z,5.47
2019-05-28T08:57:04.216Z,4.40
2019-05-28T08:59:33.119Z,5.00
2019-05-28T09:02:02.094Z,5.10
2019-05-28T09:04:31.019Z,4.50
2019-05-28T09:06:59.802Z,4.27
2019-05-28T09:09:28.698Z,4.60
2019-05-28T09:11:57.706Z,4.20
2019-05-28T09:14:26.859Z,4.27
2019-05-28T09:16:55.805Z,3.10
2019-05-28T09:19:24.733Z,4.17
2019-05-28T09:21:53.548Z,2.70
2019-05-28T09:24:22.524Z,2.70
2019-05-28T09:26:51.556Z,2.73
2019-05-28T09:29:20.408Z,2.30
2019-05-28T09:31:49.309Z,1.77
2019-05-28T09:34:18.304Z,1.90
2019-05-28T09:36:47.184Z,2.13
2019-05-28T09:39:16.584Z,2.00
2019-05-28T09:41:45.540Z,2.33
2019-05-28T09:44:14.796Z,1.80
2019-05-28T09:46:43.612Z,2.13
2019-05-28T09:49:12.820Z,2.00
2019-05-28T09:51:41.692Z,2.13
2019-05-28T09:54:10.573Z,1.90
2019-05-28T09:56:39.733Z,2.10
2019-05-28T09:59:08.701Z,1.63
2019-05-28T10:01:37.893Z,2.17
2019-05-28T10:04:06.858Z,1.97
2019-05-28T10:06:37.827Z,2.43
2019-05-28T10:09:07.677Z,1.80
2019-05-28T10:11:36.549Z,2.20
2019-05-28T10:14:05.641Z,2.27
2019-05-28T10:16:34.496Z,1.97
2019-05-28T10:19:03.537Z,2.23
2019-05-28T10:21:32.482Z,2.83
2019-05-28T10:24:01.736Z,2.03
2019-05-28T10:26:30.660Z,1.80
2019-05-28T10:28:59.664Z,2.17
2019-05-28T10:31:28.677Z,2.10
2019-05-28T10:33:57.557Z,1.80
2019-05-28T10:36:35.950Z,2.50
2019-05-28T10:38:57.209Z,2.30
2019-05-28T10:41:26.055Z,2.10
2019-05-28T10:43:54.989Z,1.50
2019-05-28T10:46:23.978Z,2.23
2019-05-28T10:48:52.888Z,1.63
2019-05-28T10:51:21.888Z,1.63
2019-05-28T10:53:50.796Z,1.63
2019-05-28T10:56:19.680Z,1.80
2019-05-28T10:58:48.685Z,1.50
2019-05-28T11:01:17.648Z,1.93
2019-05-28T11:03:47.341Z,1.50
2019-05-28T11:06:16.525Z,1.47
2019-05-28T11:08:45.430Z,1.80
2019-05-28T11:11:14.525Z,1.60
2019-05-28T11:13:52.616Z,1.67
2019-05-28T11:16:13.974Z,1.80
2019-05-28T11:18:42.916Z,1.63
2019-05-28T11:21:11.733Z,1.67
2019-05-28T11:23:40.609Z,1.63
2019-05-28T11:26:09.517Z,1.97
2019-05-28T11:28:38.299Z,1.90
2019-05-28T11:31:07.213Z,1.70
2019-05-28T11:33:36.183Z,2.27
2019-05-28T11:36:05.183Z,1.30
2019-05-28T11:38:34.178Z,2.00
2019-05-28T11:41:03.005Z,1.50
2019-05-28T11:43:31.864Z,1.40
2019-05-28T11:46:00.733Z,1.90
2019-05-28T11:48:29.700Z,1.30
2019-05-28T11:50:58.718Z,1.37
2019-05-28T11:53:27.580Z,1.50
2019-05-28T11:55:56.441Z,1.40
2019-05-28T11:58:25.348Z,1.60
2019-05-28T12:00:54.640Z,1.33
2019-05-28T12:03:23.627Z,1.60
2019-05-28T12:05:52.518Z,1.33
2019-05-28T12:08:21.724Z,1.40
2019-05-28T12:10:50.612Z,1.30
2019-05-28T12:13:19.603Z,1.70
2019-05-28T12:15:48.677Z,1.63
2019-05-28T12:18:17.949Z,1.73
2019-05-28T12:20:47.173Z,1.40
2019-05-28T12:23:16.208Z,1.37
2019-05-28T12:25:45.078Z,1.50
2019-05-28T12:28:13.864Z,1.60
2019-05-28T12:30:42.879Z,2.17
2019-05-28T12:33:11.745Z,1.53
2019-05-28T12:35:42.846Z,1.70
2019-05-28T12:38:11.441Z,1.60
2019-05-28T12:40:48.021Z,2.00
2019-05-28T12:43:10.874Z,1.80
2019-05-28T12:45:39.804Z,2.33
2019-05-28T12:48:12.588Z,2.27
2019-05-28T12:50:39.451Z,2.43
2019-05-28T12:53:08.411Z,2.00
2019-05-28T12:55:37.408Z,2.00
2019-05-28T12:58:06.367Z,1.80
2019-05-28T13:00:35.660Z,2.10
2019-05-28T13:03:04.832Z,2.07
2019-05-28T13:05:34.497Z,2.00
2019-05-28T13:08:09.404Z,1.90
2019-05-28T13:10:34.233Z,1.80
2019-05-28T13:13:03.100Z,2.77
2019-05-28T13:15:31.990Z,2.03
2019-05-28T13:18:00.861Z,2.47
2019-05-28T13:20:29.756Z,2.20
2019-05-28T13:22:58.766Z,2.30
2019-05-28T13:25:27.616Z,2.10
2019-05-28T13:27:56.516Z,2.20
2019-05-28T13:30:25.529Z,2.53
2019-05-28T13:32:54.396Z,2.43
2019-05-28T13:35:25.126Z,2.10
2019-05-28T13:37:54.117Z,1.90
2019-05-28T13:40:23.358Z,1.90
2019-05-28T13:42:52.601Z,1.70
2019-05-28T13:45:21.769Z,2.07
2019-05-28T13:47:50.732Z,2.07
2019-05-28T13:50:20.873Z,2.10
2019-05-28T13:52:49.796Z,2.43
2019-05-28T13:55:19.221Z,1.60
2019-05-28T13:57:48.116Z,1.53
2019-05-28T14:00:18.106Z,1.60
2019-05-28T14:02:47.077Z,1.50
2019-05-28T14:05:17.138Z,1.60
2019-05-28T14:07:45.930Z,2.00
2019-05-28T14:10:17.166Z,1.27
2019-05-28T14:12:46.389Z,1.93
2019-05-28T14:15:15.895Z,1.10
2019-05-28T14:17:44.833Z,1.30
2019-05-28T14:20:15.927Z,1.20
2019-05-28T14:22:44.980Z,1.33
2019-05-28T14:25:15.630Z,1.30
2019-05-28T14:27:44.563Z,1.27
2019-05-28T14:30:14.282Z,1.30
2019-05-28T14:32:43.244Z,1.50
2019-05-28T14:35:12.933Z,1.40
2019-05-28T14:37:41.853Z,1.37
2019-05-28T14:40:11.522Z,1.40
2019-05-28T14:42:40.416Z,1.20
2019-05-28T14:45:10.397Z,1.30
2019-05-28T14:47:39.360Z,1.60
2019-05-28T14:50:09.925Z,1.60
2019-05-28T14:52:38.819Z,1.00
2019-05-28T14:55:08.592Z,1.23
2019-05-28T14:57:37.671Z,1.30
2019-05-28T15:00:07.618Z,1.37
2019-05-28T15:02:37.099Z,1.50
2019-05-28T15:05:06.648Z,1.50
2019-05-28T15:07:35.805Z,1.60
2019-05-28T15:10:05.561Z,1.50
2019-05-28T15:12:34.725Z,1.30
2019-05-28T15:15:03.808Z,1.33
2019-05-28T15:17:33.222Z,1.20
2019-05-28T15:20:02.288Z,1.20
2019-05-28T15:22:31.155Z,1.30
2019-05-28T15:24:59.912Z,1.33
2019-05-28T15:27:28.692Z,1.20
2019-05-28T15:29:57.541Z,1.30
2019-05-28T15:32:26.463Z,1.33
2019-05-28T15:34:55.250Z,1.30
2019-05-28T15:37:24.352Z,1.43
2019-05-28T15:39:53.311Z,3.47
2019-05-28T15:42:22.172Z,2.30
2019-05-28T15:44:51.123Z,1.30
2019-05-28T15:47:20.148Z,2.40
2019-05-28T15:49:49.024Z,1.30
2019-05-28T15:52:17.790Z,1.60
2019-05-28T15:54:47.136Z,1.07
2019-05-28T15:57:16.600Z,0.93
2019-05-28T15:59:45.744Z,1.17
2019-05-28T16:02:14.614Z,1.20
2019-05-28T16:04:43.580Z,1.10
2019-05-28T16:07:12.860Z,1.17
2019-05-28T16:09:55.182Z,1.10
2019-05-28T16:12:12.723Z,1.10
2019-05-28T16:14:41.632Z,1.20
2019-05-28T16:17:10.606Z,1.30
2019-05-28T16:19:39.625Z,1.10
2019-05-28T16:22:08.416Z,1.13
2019-05-28T16:24:37.428Z,1.20
2019-05-28T16:27:06.365Z,0.90
2019-05-28T16:29:35.168Z,1.00
2019-05-28T16:32:04.322Z,1.00
2019-05-28T16:34:33.117Z,1.10
2019-05-28T16:37:02.330Z,1.00
2019-05-28T16:39:31.340Z,1.13
2019-05-28T16:42:00.617Z,1.07
2019-05-28T16:44:29.494Z,1.00
2019-05-28T16:47:15.961Z,1.17
2019-05-28T16:49:29.248Z,1.43
2019-05-28T16:51:58.572Z,1.40
2019-05-28T16:54:27.463Z,1.40
2019-05-28T16:56:56.364Z,1.63
2019-05-28T16:59:25.240Z,1.30
2019-05-28T17:01:54.116Z,0.90
2019-05-28T17:04:23.117Z,1.10
2019-05-28T17:06:52.024Z,1.80
2019-05-28T17:09:20.917Z,1.23
2019-05-28T17:11:49.865Z,1.30
2019-05-28T17:14:19.025Z,1.00
2019-05-28T17:16:47.992Z,1.30
2019-05-28T17:19:17.117Z,1.10
2019-05-28T17:21:46.057Z,1.17
2019-05-28T17:24:14.925Z,0.90
2019-05-28T17:26:44.129Z,1.20
2019-05-28T17:29:13.046Z,0.93
2019-05-28T17:31:42.128Z,0.97
2019-05-28T17:34:11.009Z,1.00
2019-05-28T17:36:39.778Z,1.03
2019-05-28T17:39:09.014Z,1.43
2019-05-28T17:41:37.920Z,1.07
2019-05-28T17:44:06.896Z,1.00
2019-05-28T17:46:36.052Z,1.10
2019-05-28T17:49:04.998Z,1.30
2019-05-28T17:51:33.914Z,1.10
2019-05-28T17:54:02.716Z,1.43
2019-05-28T17:56:31.743Z,1.20
2019-05-28T17:59:01.000Z,1.00
2019-05-28T18:01:30.192Z,1.50
2019-05-28T18:03:59.064Z,1.20
2019-05-28T18:06:28.078Z,1.40
2019-05-28T18:08:57.249Z,1.20
2019-05-28T18:11:26.318Z,1.30
2019-05-28T18:13:55.307Z,1.53
2019-05-28T18:16:24.099Z,1.30
2019-05-28T18:18:52.902Z,1.20
2019-05-28T18:21:21.750Z,1.30
2019-05-28T18:23:50.593Z,1.30
2019-05-28T18:26:19.525Z,1.33
2019-05-28T18:28:48.447Z,1.20
2019-05-28T18:31:17.393Z,1.20
2019-05-28T18:33:46.392Z,1.40
2019-05-28T18:36:15.486Z,1.20
2019-05-28T18:38:44.694Z,1.40
2019-05-28T18:41:21.480Z,1.30
2019-05-28T18:43:44.600Z,1.20
2019-05-28T18:46:15.553Z,1.10
2019-05-28T18:48:44.676Z,1.00
2019-05-28T18:51:13.629Z,1.13
2019-05-28T18:53:42.527Z,1.00
2019-05-28T18:56:17.376Z,1.17
2019-05-28T18:58:42.470Z,1.40
2019-05-28T19:01:11.383Z,1.07
2019-05-28T19:03:40.252Z,1.10
2019-05-28T19:06:09.165Z,1.20
2019-05-28T19:08:38.040Z,1.43
2019-05-28T19:11:08.130Z,1.27
2019-05-28T19:13:37.209Z,1.10
2019-05-28T19:16:06.085Z,1.17
2019-05-28T19:18:35.020Z,1.30
2019-05-28T19:21:03.916Z,1.30
2019-05-28T19:23:33.117Z,1.10
2019-05-28T19:26:01.996Z,1.20
2019-05-28T19:28:31.870Z,1.20
2019-05-28T19:31:00.734Z,1.60
2019-05-28T19:33:30.341Z,1.40
2019-05-28T19:35:59.577Z,1.30
2019-05-28T19:38:44.631Z,1.17
2019-05-28T19:40:59.920Z,1.20
2019-05-28T19:43:29.113Z,1.60
2019-05-28T19:45:58.180Z,1.30
2019-05-28T19:48:27.233Z,1.50
2019-05-28T19:50:56.152Z,1.40
2019-05-28T19:53:25.064Z,1.43
2019-05-28T19:55:54.056Z,1.50
2019-05-28T19:58:23.103Z,1.50
2019-05-28T20:00:52.038Z,1.30
2019-05-28T20:03:21.220Z,1.40
2019-05-28T20:05:50.633Z,1.53
2019-05-28T20:08:19.593Z,2.03
2019-05-28T20:10:50.629Z,1.60
2019-05-28T20:13:19.336Z,1.80
2019-05-28T20:15:48.145Z,1.27
2019-05-28T20:18:26.385Z,2.00
2019-05-28T20:20:47.687Z,3.00
2019-05-28T20:23:16.709Z,1.70
2019-05-28T20:25:48.941Z,1.80
2019-05-28T20:28:16.120Z,1.63
2019-05-28T20:30:45.469Z,1.90
2019-05-28T20:33:14.388Z,1.40
2019-05-28T20:35:46.342Z,1.67
2019-05-28T20:38:15.472Z,1.40
2019-05-28T20:40:44.357Z,1.70
2019-05-28T20:43:13.384Z,2.10
2019-05-28T20:45:42.360Z,1.90
2019-05-28T20:48:11.436Z,1.87
2019-05-28T20:50:40.403Z,1.87
2019-05-28T20:53:09.360Z,1.93
2019-05-28T20:55:38.269Z,1.90
2019-05-28T20:58:08.057Z,2.10
2019-05-28T21:00:37.059Z,2.43
2019-05-28T21:03:05.988Z,2.57
2019-05-28T21:05:35.000Z,2.90
2019-05-28T21:08:03.981Z,2.60
2019-05-28T21:10:33.251Z,2.57
2019-05-28T21:13:02.268Z,2.60
2019-05-28T21:15:31.205Z,2.60
2019-05-28T21:18:00.093Z,2.20
2019-05-28T21:20:29.400Z,2.40
2019-05-28T21:22:58.229Z,2.43
2019-05-28T21:25:27.080Z,2.30
2019-05-28T21:27:56.462Z,2.90
2019-05-28T21:30:25.803Z,2.93
2019-05-28T21:32:54.753Z,2.90
2019-05-28T21:35:23.702Z,2.70
2019-05-28T21:37:53.077Z,3.00
2019-05-28T21:40:22.333Z,2.90
2019-05-28T21:43:02.060Z,3.03
2019-05-28T21:45:22.764Z,3.43
2019-05-28T21:47:52.432Z,3.00
2019-05-28T21:50:22.056Z,3.50
2019-05-28T21:52:50.867Z,3.90
2019-05-28T21:55:20.348Z,3.60
2019-05-28T21:57:49.148Z,3.70
2019-05-28T22:00:26.944Z,3.50
2019-05-28T22:02:56.504Z,3.63
2019-05-28T22:05:25.415Z,3.10
2019-05-28T22:07:55.324Z,4.30
2019-05-28T22:10:24.321Z,3.83
2019-05-28T22:12:53.284Z,3.50
2019-05-28T22:15:23.401Z,4.13
2019-05-28T22:17:52.160Z,3.70
2019-05-28T22:20:21.125Z,3.83
2019-05-28T22:22:50.029Z,3.80
2019-05-28T22:25:19.088Z,4.00
2019-05-28T22:27:48.092Z,3.53
2019-05-28T22:30:17.394Z,3.63
2019-05-28T22:32:46.669Z,3.87
2019-05-28T22:35:15.600Z,4.23
2019-05-28T22:37:44.444Z,3.80
2019-05-28T22:40:13.973Z,4.77
2019-05-28T22:42:43.016Z,3.87
2019-05-28T22:45:12.632Z,4.70
2019-05-28T22:47:41.462Z,4.30
2019-05-28T22:50:21.896Z,4.50
2019-05-28T22:52:41.525Z,4.50
2019-05-28T22:55:10.612Z,5.27
2019-05-28T22:57:39.379Z,5.13
2019-05-28T23:00:09.053Z,5.40
2019-05-28T23:02:37.989Z,5.27
2019-05-28T23:05:09.275Z,5.03
2019-05-28T23:07:38.634Z,5.07
2019-05-28T23:10:08.240Z,4.50
2019-05-28T23:12:37.036Z,5.73
2019-05-28T23:15:06.684Z,5.13
2019-05-28T23:17:35.501Z,5.70
2019-05-28T23:20:04.761Z,6.50
2019-05-28T23:22:33.736Z,6.70
2019-05-28T23:25:03.299Z,5.70
2019-05-28T23:27:32.180Z,5.50
2019-05-28T23:30:06.727Z,7.30
2019-05-28T23:32:31.840Z,6.90
2019-05-28T23:35:00.749Z,5.97
2019-05-28T23:37:29.768Z,6.90
2019-05-28T23:39:59.776Z,7.53
2019-05-28T23:42:28.696Z,6.80
2019-05-28T23:44:57.708Z,6.97
2019-05-28T23:47:26.548Z,8.00
2019-05-28T23:49:55.489Z,7.47
2019-05-28T23:52:24.480Z,9.03
2019-05-28T23:54:53.488Z,9.00
2019-05-28T23:57:22.672Z,8.20
2019-05-28T23:59:51.538Z,9.40
